createdAt,value
2022-10-01T00:01:03.735Z,68.53
2022-10-01T00:03:31.748Z,68.49
2022-10-01T00:06:06.457Z,68.50
2022-10-01T00:08:34.176Z,68.56
2022-10-01T00:11:01.766Z,68.47
2022-10-01T00:13:30.595Z,68.43
2022-10-01T00:15:57.621Z,68.56
2022-10-01T00:18:24.237Z,68.44
2022-10-01T00:20:50.987Z,68.43
2022-10-01T00:23:19.368Z,68.42
2022-10-01T00:25:45.999Z,68.42
2022-10-01T00:28:12.759Z,68.30
2022-10-01T00:30:46.974Z,68.31
2022-10-01T00:33:13.806Z,68.10
2022-10-01T00:35:40.539Z,68.16
2022-10-01T00:38:07.213Z,68.07
2022-10-01T00:40:33.849Z,68.08
2022-10-01T00:43:00.551Z,68.30
2022-10-01T00:45:27.604Z,68.59
2022-10-01T00:47:56.277Z,68.38
2022-10-01T00:50:28.427Z,68.63
2022-10-01T00:52:57.771Z,68.69
2022-10-01T00:55:34.404Z,68.69
2022-10-01T00:58:01.219Z,68.58
2022-10-01T01:00:27.930Z,68.72
2022-10-01T01:02:55.199Z,68.52
2022-10-01T01:05:22.199Z,68.45
2022-10-01T01:07:50.493Z,68.48
2022-10-01T01:10:20.314Z,68.53
2022-10-01T01:13:07.243Z,68.39
2022-10-01T01:15:42.604Z,68.66
2022-10-01T01:18:30.248Z,68.66
2022-10-01T01:21:12.467Z,68.58
2022-10-01T01:23:51.206Z,68.79
2022-10-01T01:26:28.801Z,68.85
2022-10-01T01:29:02.408Z,68.90
2022-10-01T01:31:34.549Z,68.92
2022-10-01T01:34:03.664Z,68.96
2022-10-01T01:36:35.809Z,68.86
2022-10-01T01:39:04.726Z,68.85
2022-10-01T01:41:35.939Z,68.87
2022-10-01T01:44:04.926Z,69.07
2022-10-01T01:46:33.954Z,69.03
2022-10-01T01:49:01.765Z,69.13
2022-10-01T01:51:41.632Z,69.27
2022-10-01T01:54:09.075Z,69.20
2022-10-01T01:56:35.904Z,69.33
2022-10-01T01:59:03.471Z,69.38
2022-10-01T02:01:41.100Z,69.33
2022-10-01T02:04:23.939Z,69.53
2022-10-01T02:07:16.311Z,69.22
2022-10-01T02:10:15.559Z,69.49
2022-10-01T02:13:01.616Z,69.57
2022-10-01T02:15:37.199Z,69.60
2022-10-01T02:18:23.137Z,69.65
2022-10-01T02:20:56.287Z,69.64
2022-10-01T02:23:28.336Z,69.67
2022-10-01T02:25:59.193Z,69.67
2022-10-01T02:28:26.173Z,69.85
2022-10-01T02:30:54.598Z,69.83
2022-10-01T02:33:25.166Z,69.83
2022-10-01T02:35:52.844Z,69.84
2022-10-01T02:38:22.070Z,70.03
2022-10-01T02:40:50.114Z,70.44
2022-10-01T02:43:23.050Z,70.45
2022-10-01T02:45:55.604Z,70.40
2022-10-01T02:48:22.333Z,70.43
2022-10-01T02:50:52.156Z,70.73
2022-10-01T02:53:27.352Z,70.32
2022-10-01T02:55:54.220Z,70.53
2022-10-01T02:58:21.261Z,70.51
2022-10-01T03:00:47.898Z,70.98
2022-10-01T03:03:14.559Z,71.11
2022-10-01T03:05:41.270Z,71.25
2022-10-01T03:08:08.025Z,71.24
2022-10-01T03:10:34.981Z,71.15
2022-10-01T03:13:01.999Z,71.48
2022-10-01T03:15:29.359Z,71.86
2022-10-01T03:17:56.068Z,72.24
2022-10-01T03:20:22.984Z,72.08
2022-10-01T03:22:49.902Z,72.35
2022-10-01T03:25:16.895Z,72.46
2022-10-01T03:27:43.735Z,73.46
2022-10-01T03:30:11.272Z,73.17
2022-10-01T03:32:37.990Z,73.59
2022-10-01T03:35:05.205Z,73.46
2022-10-01T03:37:31.861Z,73.37
2022-10-01T03:39:58.531Z,73.35
2022-10-01T03:42:25.300Z,73.25
2022-10-01T03:44:52.180Z,73.96
2022-10-01T03:47:18.870Z,73.85
2022-10-01T03:49:45.520Z,73.67
2022-10-01T03:52:12.173Z,73.46
2022-10-01T03:54:39.510Z,74.31
2022-10-01T03:57:06.965Z,74.45
2022-10-01T03:59:33.607Z,74.53
2022-10-01T04:02:00.400Z,75.95
2022-10-01T04:04:29.085Z,75.09
2022-10-01T04:06:55.818Z,75.20
2022-10-01T04:09:22.463Z,75.06
2022-10-01T04:11:49.383Z,74.83
2022-10-01T04:14:16.073Z,74.36
2022-10-01T04:16:43.561Z,74.15
2022-10-01T04:19:10.197Z,73.87
2022-10-01T04:21:38.320Z,73.52
2022-10-01T04:24:05.671Z,73.08
2022-10-01T04:26:32.344Z,72.95
2022-10-01T04:28:59.024Z,72.92
2022-10-01T04:31:25.897Z,72.83
2022-10-01T04:33:57.233Z,72.76
2022-10-01T04:36:24.918Z,72.71
2022-10-01T04:38:59.323Z,73.43
2022-10-01T04:41:30.820Z,73.13
2022-10-01T04:44:00.212Z,73.14
2022-10-01T04:46:28.531Z,73.19
2022-10-01T04:48:55.327Z,73.22
2022-10-01T04:51:22.063Z,72.88
2022-10-01T04:53:48.793Z,73.02
2022-10-01T04:56:15.431Z,72.72
2022-10-01T04:58:42.398Z,72.65
2022-10-01T05:01:09.192Z,72.63
2022-10-01T05:03:35.903Z,73.19
2022-10-01T05:06:02.600Z,73.11
2022-10-01T05:08:29.445Z,73.34
2022-10-01T05:10:56.082Z,74.28
2022-10-01T05:13:22.767Z,74.53
2022-10-01T05:15:52.400Z,74.47
2022-10-01T05:18:19.364Z,74.69
2022-10-01T05:20:46.254Z,75.51
2022-10-01T05:23:12.919Z,76.70
2022-10-01T05:25:39.598Z,77.42
2022-10-01T05:28:06.418Z,78.18
2022-10-01T05:30:33.999Z,77.15
2022-10-01T05:33:02.169Z,76.47
2022-10-01T05:35:29.385Z,75.86
2022-10-01T05:38:00.688Z,75.49
2022-10-01T05:40:28.799Z,75.67
2022-10-01T05:42:56.615Z,75.40
2022-10-01T05:45:23.640Z,74.79
2022-10-01T05:48:04.712Z,75.61
2022-10-01T05:50:32.787Z,75.73
2022-10-01T05:53:00.300Z,75.14
2022-10-01T05:55:27.520Z,74.80
2022-10-01T05:57:58.953Z,74.81
2022-10-01T06:00:28.480Z,74.43
2022-10-01T06:02:59.654Z,74.56
2022-10-01T06:05:26.983Z,75.19
2022-10-01T06:07:53.753Z,74.72
2022-10-01T06:10:22.337Z,75.19
2022-10-01T06:12:49.712Z,75.82
2022-10-01T06:15:17.515Z,76.63
2022-10-01T06:17:45.394Z,75.72
2022-10-01T06:20:13.976Z,76.36
2022-10-01T06:22:41.424Z,76.08
2022-10-01T06:25:08.564Z,75.89
2022-10-01T06:27:35.347Z,75.60
2022-10-01T06:30:02.383Z,75.08
2022-10-01T06:32:32.829Z,75.54
2022-10-01T06:35:01.548Z,74.83
2022-10-01T06:37:28.253Z,75.00
2022-10-01T06:39:55.112Z,74.89
2022-10-01T06:42:22.393Z,74.83
2022-10-01T06:44:49.167Z,75.30
2022-10-01T06:47:16.148Z,74.69
2022-10-01T06:49:47.292Z,74.49
2022-10-01T06:52:32.905Z,74.78
2022-10-01T06:55:01.562Z,75.61
2022-10-01T06:57:28.745Z,75.54
2022-10-01T06:59:55.736Z,75.53
2022-10-01T07:02:30.522Z,76.47
2022-10-01T07:05:00.171Z,76.59
2022-10-01T07:07:37.569Z,76.07
2022-10-01T07:10:06.703Z,75.72
2022-10-01T07:12:34.409Z,75.93
2022-10-01T07:15:01.213Z,75.63
2022-10-01T07:17:28.007Z,75.02
2022-10-01T07:19:54.903Z,74.72
2022-10-01T07:22:24.256Z,74.67
2022-10-01T07:24:52.231Z,75.55
2022-10-01T07:27:19.918Z,75.67
2022-10-01T07:29:47.009Z,75.95
2022-10-01T07:32:13.957Z,75.25
2022-10-01T07:34:40.685Z,75.47
2022-10-01T07:37:07.800Z,75.41
2022-10-01T07:39:35.132Z,75.18
2022-10-01T07:42:02.173Z,74.81
2022-10-01T07:44:29.583Z,74.26
2022-10-01T07:46:56.979Z,74.50
2022-10-01T07:49:25.400Z,74.42
2022-10-01T07:51:54.563Z,74.61
2022-10-01T07:54:25.205Z,75.18
2022-10-01T07:56:55.956Z,74.49
2022-10-01T07:59:23.392Z,74.26
2022-10-01T08:01:51.972Z,74.18
2022-10-01T08:04:40.939Z,75.44
2022-10-01T08:07:08.446Z,74.77
2022-10-01T08:09:39.966Z,74.44
2022-10-01T08:12:06.654Z,74.79
2022-10-01T08:14:33.404Z,74.32
2022-10-01T08:17:00.183Z,74.60
2022-10-01T08:19:27.158Z,73.67
2022-10-01T08:21:53.867Z,73.77
2022-10-01T08:24:20.534Z,72.82
2022-10-01T08:26:53.400Z,71.78
2022-10-01T08:29:20.541Z,71.80
2022-10-01T08:31:47.885Z,71.71
2022-10-01T08:34:15.079Z,71.87
2022-10-01T08:36:41.718Z,71.90
2022-10-01T08:39:08.743Z,71.34
2022-10-01T08:41:42.584Z,71.88
2022-10-01T08:44:16.958Z,71.46
2022-10-01T08:46:43.787Z,71.13
2022-10-01T08:49:31.925Z,71.26
2022-10-01T08:52:07.765Z,71.11
2022-10-01T08:54:39.431Z,70.87
2022-10-01T08:57:11.873Z,69.65
2022-10-01T08:59:41.323Z,69.96
2022-10-01T09:02:26.408Z,70.09
2022-10-01T09:05:01.124Z,69.42
2022-10-01T09:07:40.365Z,68.79
2022-10-01T09:10:17.312Z,69.05
2022-10-01T09:13:09.270Z,69.32
2022-10-01T09:15:38.802Z,69.33
2022-10-01T09:18:31.786Z,69.48
2022-10-01T09:20:59.098Z,70.42
2022-10-01T09:23:31.081Z,70.75
2022-10-01T09:25:59.769Z,71.09
2022-10-01T09:28:35.259Z,70.83
2022-10-01T09:31:12.275Z,70.68
2022-10-01T09:33:42.743Z,71.41
2022-10-01T09:36:15.495Z,70.90
2022-10-01T09:38:44.134Z,71.70
2022-10-01T09:41:11.832Z,70.08
2022-10-01T09:43:42.826Z,69.99
2022-10-01T09:46:13.863Z,71.50
2022-10-01T09:48:56.772Z,71.19
2022-10-01T09:51:39.356Z,71.23
2022-10-01T09:54:18.361Z,71.10
2022-10-01T09:57:02.099Z,71.00
2022-10-01T09:59:38.768Z,72.72
2022-10-01T10:02:15.369Z,73.61
2022-10-01T10:04:42.180Z,74.65
2022-10-01T10:07:16.703Z,75.30
2022-10-01T10:09:43.444Z,76.21
2022-10-01T10:12:25.636Z,77.51
2022-10-01T10:14:55.605Z,78.15
2022-10-01T10:17:22.716Z,79.08
2022-10-01T10:19:51.898Z,80.74
2022-10-01T10:22:26.142Z,80.38
2022-10-01T10:24:54.406Z,81.27
2022-10-01T10:27:29.525Z,82.61
2022-10-01T10:30:05.967Z,83.72
2022-10-01T10:32:33.332Z,83.91
2022-10-01T10:35:04.811Z,84.03
2022-10-01T10:37:37.085Z,84.26
2022-10-01T10:40:06.261Z,84.28
2022-10-01T10:42:34.297Z,84.93
2022-10-01T10:45:03.646Z,85.66
2022-10-01T10:47:31.739Z,85.46
2022-10-01T10:50:01.475Z,85.80
2022-10-01T10:52:32.453Z,87.22
2022-10-01T10:55:00.815Z,87.43
2022-10-01T10:57:28.334Z,87.67
2022-10-01T11:00:04.429Z,87.58
2022-10-01T11:02:32.477Z,87.21
2022-10-01T11:05:03.927Z,87.58
2022-10-01T11:07:31.129Z,88.40
2022-10-01T11:10:19.156Z,88.93
2022-10-01T11:12:58.924Z,87.54
2022-10-01T11:15:47.142Z,88.45
2022-10-01T11:18:35.706Z,88.44
2022-10-01T11:21:19.546Z,88.48
2022-10-01T11:23:59.759Z,87.93
2022-10-01T11:26:35.646Z,87.64
2022-10-01T11:29:16.679Z,86.98
2022-10-01T11:31:55.420Z,86.46
2022-10-01T11:34:28.101Z,85.55
2022-10-01T11:37:19.154Z,87.64
2022-10-01T11:39:48.487Z,87.65
2022-10-01T11:42:22.301Z,87.10
2022-10-01T11:44:53.819Z,86.25
2022-10-01T11:47:38.034Z,85.63
2022-10-01T11:50:15.406Z,85.21
2022-10-01T11:53:15.735Z,85.03
2022-10-01T11:56:45.410Z,84.93
2022-10-01T11:59:24.039Z,84.44
2022-10-01T12:02:03.824Z,84.83
2022-10-01T12:04:38.024Z,84.93
2022-10-01T12:07:10.984Z,85.09
2022-10-01T12:09:58.361Z,85.00
2022-10-01T12:12:38.948Z,84.99
2022-10-01T12:15:07.019Z,84.87
2022-10-01T12:17:48.980Z,85.13
2022-10-01T12:20:36.684Z,85.40
2022-10-01T12:23:05.812Z,85.61
2022-10-01T12:25:52.262Z,85.38
2022-10-01T12:28:27.826Z,85.97
2022-10-01T12:31:00.870Z,85.81
2022-10-01T12:33:51.543Z,87.06
2022-10-01T12:36:28.377Z,87.74
2022-10-01T12:38:56.268Z,87.63
2022-10-01T12:41:56.647Z,87.63
2022-10-01T12:44:54.254Z,87.67
2022-10-01T12:47:35.511Z,87.77
2022-10-01T12:50:11.405Z,87.46
2022-10-01T12:52:49.644Z,87.05
2022-10-01T12:55:59.510Z,87.39
2022-10-01T12:58:56.296Z,87.07
2022-10-01T13:01:34.587Z,87.24
2022-10-01T13:04:33.656Z,87.04
2022-10-01T13:07:39.429Z,86.33
2022-10-01T13:10:25.063Z,86.32
2022-10-01T13:13:04.731Z,86.26
2022-10-01T13:15:42.110Z,86.17
2022-10-01T13:18:15.502Z,86.46
2022-10-01T13:21:09.279Z,86.66
2022-10-01T13:23:58.362Z,86.38
2022-10-01T13:26:39.215Z,86.62
2022-10-01T13:29:13.301Z,86.71
2022-10-01T13:31:56.917Z,86.68
2022-10-01T13:34:27.475Z,86.55
2022-10-01T13:36:55.143Z,86.16
2022-10-01T13:39:24.071Z,86.72
2022-10-01T13:41:56.268Z,86.36
2022-10-01T13:44:34.683Z,85.79
2022-10-01T13:47:07.188Z,85.55
2022-10-01T13:49:35.024Z,85.74
2022-10-01T13:52:03.174Z,85.40
2022-10-01T13:54:46.663Z,85.80
2022-10-01T13:57:22.787Z,85.73
2022-10-01T14:00:18.371Z,86.04
2022-10-01T14:03:04.172Z,85.44
2022-10-01T14:05:39.877Z,84.97
2022-10-01T14:08:26.592Z,84.72
2022-10-01T14:11:33.298Z,84.08
2022-10-01T14:14:29.923Z,84.03
2022-10-01T14:16:57.843Z,84.14
2022-10-01T14:19:26.424Z,83.68
2022-10-01T14:22:04.132Z,83.61
2022-10-01T14:24:43.534Z,83.68
2022-10-01T14:28:04.243Z,84.21
2022-10-01T14:30:56.684Z,83.80
2022-10-01T14:33:44.145Z,83.19
2022-10-01T14:36:42.484Z,83.25
2022-10-01T14:39:18.662Z,83.26
2022-10-01T14:41:46.763Z,83.10
2022-10-01T14:44:31.791Z,82.61
2022-10-01T14:47:00.359Z,82.49
2022-10-01T14:49:32.426Z,83.11
2022-10-01T14:52:01.567Z,82.68
2022-10-01T14:54:29.401Z,82.66
2022-10-01T14:56:56.104Z,82.70
2022-10-01T14:59:43.041Z,82.42
2022-10-01T15:02:24.039Z,82.49
2022-10-01T15:04:53.398Z,82.48
2022-10-01T15:07:20.322Z,81.99
2022-10-01T15:09:47.963Z,82.15
2022-10-01T15:12:16.445Z,81.97
2022-10-01T15:14:43.841Z,82.41
2022-10-01T15:17:20.786Z,82.51
2022-10-01T15:19:52.278Z,82.13
2022-10-01T15:22:25.368Z,82.11
2022-10-01T15:24:53.647Z,82.00
2022-10-01T15:27:21.312Z,81.64
2022-10-01T15:29:56.075Z,81.74
2022-10-01T15:32:24.558Z,82.18
2022-10-01T15:34:57.264Z,81.92
2022-10-01T15:37:28.754Z,81.72
2022-10-01T15:39:56.244Z,81.50
2022-10-01T15:42:28.662Z,81.14
2022-10-01T15:45:22.137Z,81.17
2022-10-01T15:47:51.863Z,81.00
2022-10-01T15:50:27.630Z,80.79
2022-10-01T15:53:06.533Z,80.09
2022-10-01T15:55:40.321Z,79.80
2022-10-01T15:58:10.044Z,79.67
2022-10-01T16:00:54.065Z,79.38
2022-10-01T16:03:43.188Z,79.19
2022-10-01T16:06:40.100Z,79.14
2022-10-01T16:09:24.007Z,79.04
2022-10-01T16:12:18.627Z,79.25
2022-10-01T16:15:30.313Z,78.74
2022-10-01T16:17:58.812Z,78.70
2022-10-01T16:20:34.524Z,78.58
2022-10-01T16:23:48.243Z,79.17
2022-10-01T16:26:30.294Z,78.72
2022-10-01T16:28:58.996Z,78.30
2022-10-01T16:31:25.843Z,78.51
2022-10-01T16:33:52.960Z,78.60
2022-10-01T16:36:20.899Z,78.32
2022-10-01T16:38:48.342Z,78.58
2022-10-01T16:41:20.048Z,78.96
2022-10-01T16:43:46.901Z,78.84
2022-10-01T16:46:13.735Z,79.16
2022-10-01T16:48:40.625Z,78.95
2022-10-01T16:51:07.534Z,78.72
2022-10-01T16:53:34.301Z,78.46
2022-10-01T16:56:01.415Z,78.47
2022-10-01T16:58:28.421Z,78.36
2022-10-01T17:00:55.318Z,78.16
2022-10-01T17:03:22.761Z,78.17
2022-10-01T17:05:50.114Z,78.26
2022-10-01T17:08:17.286Z,78.23
2022-10-01T17:10:51.358Z,78.70
2022-10-01T17:13:18.153Z,79.02
2022-10-01T17:15:44.886Z,78.75
2022-10-01T17:18:12.334Z,79.36
2022-10-01T17:20:39.832Z,79.90
2022-10-01T17:23:06.531Z,80.13
2022-10-01T17:25:35.873Z,80.38
2022-10-01T17:28:14.035Z,79.94
2022-10-01T17:30:43.435Z,80.49
2022-10-01T17:33:11.878Z,80.30
2022-10-01T17:35:43.693Z,80.18
2022-10-01T17:38:11.553Z,79.89
2022-10-01T17:40:42.728Z,80.92
2022-10-01T17:43:14.122Z,80.82
2022-10-01T17:45:41.916Z,80.48
2022-10-01T17:48:09.932Z,80.59
2022-10-01T17:50:43.816Z,80.40
2022-10-01T17:53:14.774Z,80.54
2022-10-01T17:55:42.357Z,80.60
2022-10-01T17:58:10.121Z,80.79
2022-10-01T18:00:41.168Z,81.46
2022-10-01T18:03:08.097Z,82.17
2022-10-01T18:05:34.829Z,82.29
2022-10-01T18:08:02.578Z,83.41
2022-10-01T18:10:29.432Z,83.83
2022-10-01T18:12:57.786Z,83.65
2022-10-01T18:15:24.541Z,83.84
2022-10-01T18:18:33.995Z,83.56
2022-10-01T18:20:40.924Z,83.83
2022-10-01T18:23:07.720Z,84.11
2022-10-01T18:25:34.480Z,83.36
2022-10-01T18:28:01.597Z,83.45
2022-10-01T18:30:28.497Z,83.91
2022-10-01T18:32:57.216Z,84.29
2022-10-01T18:35:33.689Z,84.21
2022-10-01T18:38:14.959Z,84.12
2022-10-01T18:40:43.678Z,84.76
2022-10-01T18:43:24.264Z,84.57
2022-10-01T18:46:03.910Z,84.84
2022-10-01T18:48:42.599Z,84.75
2022-10-01T18:51:25.995Z,84.45
2022-10-01T18:54:06.221Z,84.26
2022-10-01T18:56:37.920Z,84.74
2022-10-01T18:59:27.871Z,84.69
2022-10-01T19:01:57.366Z,84.53
2022-10-01T19:04:40.054Z,84.41
2022-10-01T19:07:28.114Z,83.89
2022-10-01T19:10:14.842Z,84.05
2022-10-01T19:13:06.050Z,84.76
2022-10-01T19:15:54.188Z,84.00
2022-10-01T19:18:56.871Z,83.76
2022-10-01T19:21:35.662Z,83.63
2022-10-01T19:24:11.485Z,83.43
2022-10-01T19:27:04.851Z,83.88
2022-10-01T19:30:00.912Z,83.78
2022-10-01T19:32:34.003Z,83.08
2022-10-01T19:35:06.954Z,82.39
2022-10-01T19:37:39.858Z,81.81
2022-10-01T19:40:25.577Z,81.79
2022-10-01T19:43:01.411Z,81.70
2022-10-01T19:45:46.795Z,81.27
2022-10-01T19:48:45.094Z,80.60
2022-10-01T19:51:13.818Z,80.63
2022-10-01T19:53:47.184Z,80.11
2022-10-01T19:56:22.600Z,79.83
2022-10-01T19:58:49.319Z,80.46
2022-10-01T20:01:20.264Z,79.88
2022-10-01T20:04:21.398Z,79.63
2022-10-01T20:07:00.793Z,79.56
2022-10-01T20:09:29.476Z,78.81
2022-10-01T20:12:18.135Z,79.29
2022-10-01T20:15:11.736Z,79.11
2022-10-01T20:17:54.871Z,79.22
2022-10-01T20:20:59.379Z,78.57
2022-10-01T20:23:35.325Z,78.86
2022-10-01T20:26:26.013Z,78.27
2022-10-01T20:29:26.934Z,78.41
2022-10-01T20:32:07.151Z,78.21
2022-10-01T20:34:49.025Z,78.58
2022-10-01T20:37:40.532Z,79.21
2022-10-01T20:40:29.023Z,78.75
2022-10-01T20:43:07.487Z,79.05
2022-10-01T20:45:35.572Z,79.22
2022-10-01T20:48:42.955Z,79.35
2022-10-01T20:51:17.462Z,78.98
2022-10-01T20:53:57.339Z,78.73
2022-10-01T20:56:43.459Z,78.66
2022-10-01T20:59:22.150Z,78.71
2022-10-01T21:02:02.620Z,78.86
2022-10-01T21:04:33.902Z,78.93
2022-10-01T21:07:14.375Z,79.52
2022-10-01T21:09:46.860Z,79.89
2022-10-01T21:12:18.846Z,80.05
2022-10-01T21:14:53.359Z,80.13
2022-10-01T21:17:26.034Z,80.01
2022-10-01T21:19:58.745Z,79.94
2022-10-01T21:22:43.697Z,80.55
2022-10-01T21:25:16.957Z,79.99
2022-10-01T21:27:58.868Z,79.79
2022-10-01T21:30:25.637Z,79.67
2022-10-01T21:33:06.433Z,79.71
2022-10-01T21:35:38.159Z,79.63
2022-10-01T21:38:32.296Z,79.04
2022-10-01T21:41:24.563Z,79.35
2022-10-01T21:44:19.142Z,79.85
2022-10-01T21:46:53.357Z,79.69
2022-10-01T21:49:33.875Z,79.59
2022-10-01T21:52:11.022Z,79.94
2022-10-01T21:54:44.744Z,79.88
2022-10-01T21:57:48.492Z,79.78
2022-10-01T22:00:23.379Z,80.05
2022-10-01T22:03:02.374Z,79.47
2022-10-01T22:05:51.192Z,80.03
2022-10-01T22:08:27.204Z,79.88
2022-10-01T22:11:01.798Z,79.78
2022-10-01T22:13:32.833Z,79.85
2022-10-01T22:16:03.437Z,80.02
2022-10-01T22:18:41.195Z,80.03
2022-10-01T22:21:12.156Z,79.48
2022-10-01T22:23:42.249Z,79.78
2022-10-01T22:26:14.554Z,79.42
2022-10-01T22:28:42.870Z,80.36
2022-10-01T22:31:15.799Z,80.61
2022-10-01T22:34:04.456Z,79.84
2022-10-01T22:36:36.806Z,79.49
2022-10-01T22:39:08.402Z,79.65
2022-10-01T22:41:59.452Z,79.78
2022-10-01T22:44:27.995Z,80.05
2022-10-01T22:47:00.861Z,79.87
2022-10-01T22:49:55.801Z,80.63
2022-10-01T22:52:44.390Z,80.54
2022-10-01T22:55:32.867Z,80.51
2022-10-01T22:58:14.847Z,79.91
2022-10-01T23:00:56.383Z,79.92
2022-10-01T23:03:25.993Z,79.76
2022-10-01T23:06:06.591Z,79.34
2022-10-01T23:08:58.514Z,79.38
2022-10-01T23:11:29.700Z,78.87
2022-10-01T23:14:22.315Z,79.04
2022-10-01T23:17:11.672Z,78.89
2022-10-01T23:19:59.750Z,79.28
2022-10-01T23:22:37.151Z,79.16
2022-10-01T23:25:19.728Z,79.49
2022-10-01T23:27:52.745Z,79.90
2022-10-01T23:30:20.481Z,79.42
2022-10-01T23:33:02.758Z,79.38
2022-10-01T23:35:52.848Z,79.24
2022-10-01T23:38:36.616Z,79.55
2022-10-01T23:41:11.665Z,80.17
2022-10-01T23:43:43.877Z,80.20
2022-10-01T23:46:23.971Z,80.62
2022-10-01T23:48:56.283Z,80.56
2022-10-01T23:51:25.898Z,80.44
2022-10-01T23:54:15.458Z,80.39
2022-10-01T23:56:52.489Z,81.04
2022-10-01T23:59:29.349Z,80.95
